sensor_id;sensor_type;location;lat;lon;timestamp;temperature;humidity
68387;DHT22;55338;43.062;25.624;2023-02-26T00:02:15;14.60;72.80
68387;DHT22;55338;43.062;25.624;2023-02-26T00:04:41;14.60;72.50
68387;DHT22;55338;43.062;25.624;2023-02-26T00:07:07;14.60;72.30
68387;DHT22;55338;43.062;25.624;2023-02-26T00:09:33;14.70;72.10
68387;DHT22;55338;43.062;25.624;2023-02-26T00:11:59;14.60;72.00
68387;DHT22;55338;43.062;25.624;2023-02-26T00:14:26;14.70;72.00
68387;DHT22;55338;43.062;25.624;2023-02-26T00:19:56;14.70;71.40
68387;DHT22;55338;43.062;25.624;2023-02-26T00:22:22;14.70;71.50
68387;DHT22;55338;43.062;25.624;2023-02-26T00:24:48;14.70;70.90
68387;DHT22;55338;43.062;25.624;2023-02-26T00:27:13;14.70;70.20
68387;DHT22;55338;43.062;25.624;2023-02-26T00:29:39;14.80;69.80
68387;DHT22;55338;43.062;25.624;2023-02-26T00:32:06;14.90;69.40
68387;DHT22;55338;43.062;25.624;2023-02-26T00:34:32;15.00;69.60
68387;DHT22;55338;43.062;25.624;2023-02-26T00:42:25;15.00;70.40
68387;DHT22;55338;43.062;25.624;2023-02-26T00:44:51;15.00;70.70
68387;DHT22;55338;43.062;25.624;2023-02-26T00:50:23;14.90;71.60
68387;DHT22;55338;43.062;25.624;2023-02-26T00:55:35;14.80;72.40
68387;DHT22;55338;43.062;25.624;2023-02-26T00:58:01;14.70;72.60
68387;DHT22;55338;43.062;25.624;2023-02-26T01:00:26;14.70;73.00
68387;DHT22;55338;43.062;25.624;2023-02-26T01:02:52;14.60;73.00
68387;DHT22;55338;43.062;25.624;2023-02-26T01:05:19;14.50;73.70
68387;DHT22;55338;43.062;25.624;2023-02-26T01:08:24;14.60;73.90
68387;DHT22;55338;43.062;25.624;2023-02-26T01:10:52;14.50;74.20
68387;DHT22;55338;43.062;25.624;2023-02-26T01:13:18;14.40;74.30
68387;DHT22;55338;43.062;25.624;2023-02-26T01:15:49;14.40;74.20
68387;DHT22;55338;43.062;25.624;2023-02-26T01:18:32;14.40;74.20
68387;DHT22;55338;43.062;25.624;2023-02-26T01:21:03;14.40;73.60
68387;DHT22;55338;43.062;25.624;2023-02-26T01:23:36;14.50;73.00
68387;DHT22;55338;43.062;25.624;2023-02-26T01:26:26;14.50;72.50
68387;DHT22;55338;43.062;25.624;2023-02-26T01:28:52;14.50;73.40
68387;DHT22;55338;43.062;25.624;2023-02-26T01:34:15;14.50;73.00
68387;DHT22;55338;43.062;25.624;2023-02-26T01:42:59;14.80;71.50
68387;DHT22;55338;43.062;25.624;2023-02-26T01:45:34;14.80;70.70
68387;DHT22;55338;43.062;25.624;2023-02-26T01:48:06;14.90;69.70
68387;DHT22;55338;43.062;25.624;2023-02-26T01:50:37;15.00;69.50
68387;DHT22;55338;43.062;25.624;2023-02-26T01:55:41;15.00;68.30
68387;DHT22;55338;43.062;25.624;2023-02-26T01:58:08;15.10;67.60
68387;DHT22;55338;43.062;25.624;2023-02-26T02:00:34;15.10;67.40
68387;DHT22;55338;43.062;25.624;2023-02-26T02:03:00;15.20;66.90
68387;DHT22;55338;43.062;25.624;2023-02-26T02:05:41;15.30;66.70
68387;DHT22;55338;43.062;25.624;2023-02-26T02:08:10;15.30;66.20
68387;DHT22;55338;43.062;25.624;2023-02-26T02:10:43;15.30;65.70
68387;DHT22;55338;43.062;25.624;2023-02-26T02:13:42;15.30;65.20
68387;DHT22;55338;43.062;25.624;2023-02-26T02:21:47;15.60;63.40
68387;DHT22;55338;43.062;25.624;2023-02-26T02:32:51;15.70;63.90
68387;DHT22;55338;43.062;25.624;2023-02-26T02:35:29;15.70;64.10
68387;DHT22;55338;43.062;25.624;2023-02-26T02:38:03;15.70;65.10
68387;DHT22;55338;43.062;25.624;2023-02-26T02:40:33;15.70;65.80
68387;DHT22;55338;43.062;25.624;2023-02-26T02:43:03;15.60;66.30
68387;DHT22;55338;43.062;25.624;2023-02-26T02:45:53;15.50;66.90
68387;DHT22;55338;43.062;25.624;2023-02-26T02:48:27;15.40;67.30
68387;DHT22;55338;43.062;25.624;2023-02-26T02:50:59;15.40;67.50
68387;DHT22;55338;43.062;25.624;2023-02-26T02:53:32;15.30;67.90
68387;DHT22;55338;43.062;25.624;2023-02-26T02:56:06;15.30;68.10
68387;DHT22;55338;43.062;25.624;2023-02-26T02:58:39;15.20;68.60
68387;DHT22;55338;43.062;25.624;2023-02-26T03:01:09;15.20;68.50
68387;DHT22;55338;43.062;25.624;2023-02-26T03:03:46;15.20;68.50
68387;DHT22;55338;43.062;25.624;2023-02-26T03:06:13;15.10;68.70
68387;DHT22;55338;43.062;25.624;2023-02-26T03:08:40;15.20;68.00
68387;DHT22;55338;43.062;25.624;2023-02-26T03:11:07;15.20;67.80
68387;DHT22;55338;43.062;25.624;2023-02-26T03:13:34;15.30;67.50
68387;DHT22;55338;43.062;25.624;2023-02-26T03:26:26;15.30;67.30
68387;DHT22;55338;43.062;25.624;2023-02-26T03:28:58;15.30;67.80
68387;DHT22;55338;43.062;25.624;2023-02-26T03:31:45;15.30;68.20
68387;DHT22;55338;43.062;25.624;2023-02-26T03:37:25;15.30;69.00
68387;DHT22;55338;43.062;25.624;2023-02-26T03:39:54;15.20;69.70
68387;DHT22;55338;43.062;25.624;2023-02-26T03:42:44;15.20;70.20
68387;DHT22;55338;43.062;25.624;2023-02-26T03:45:15;15.10;71.10
68387;DHT22;55338;43.062;25.624;2023-02-26T03:47:45;15.10;71.30
68387;DHT22;55338;43.062;25.624;2023-02-26T03:53:03;15.10;72.00
68387;DHT22;55338;43.062;25.624;2023-02-26T03:55:50;15.20;71.40
68387;DHT22;55338;43.062;25.624;2023-02-26T03:58:18;15.10;71.50
68387;DHT22;55338;43.062;25.624;2023-02-26T04:00:46;15.10;71.70
68387;DHT22;55338;43.062;25.624;2023-02-26T04:03:27;15.10;71.80
68387;DHT22;55338;43.062;25.624;2023-02-26T04:05:55;15.10;71.80
68387;DHT22;55338;43.062;25.624;2023-02-26T04:08:22;15.20;71.40
68387;DHT22;55338;43.062;25.624;2023-02-26T04:10:56;15.10;71.70
68387;DHT22;55338;43.062;25.624;2023-02-26T04:13:23;15.10;71.80
68387;DHT22;55338;43.062;25.624;2023-02-26T04:15:49;15.10;72.10
68387;DHT22;55338;43.062;25.624;2023-02-26T04:18:15;15.10;72.00
68387;DHT22;55338;43.062;25.624;2023-02-26T04:20:40;15.10;71.70
68387;DHT22;55338;43.062;25.624;2023-02-26T04:23:06;15.20;71.70
68387;DHT22;55338;43.062;25.624;2023-02-26T04:25:32;15.10;72.00
68387;DHT22;55338;43.062;25.624;2023-02-26T04:27:58;15.20;71.80
68387;DHT22;55338;43.062;25.624;2023-02-26T04:30:24;15.30;71.60
68387;DHT22;55338;43.062;25.624;2023-02-26T04:32:49;15.30;71.90
68387;DHT22;55338;43.062;25.624;2023-02-26T04:35:15;15.20;72.20
68387;DHT22;55338;43.062;25.624;2023-02-26T04:37:41;15.20;72.40
68387;DHT22;55338;43.062;25.624;2023-02-26T04:40:08;15.20;72.20
68387;DHT22;55338;43.062;25.624;2023-02-26T04:42:34;15.30;72.40
68387;DHT22;55338;43.062;25.624;2023-02-26T04:45:00;15.20;72.50
68387;DHT22;55338;43.062;25.624;2023-02-26T04:47:25;15.20;72.80
68387;DHT22;55338;43.062;25.624;2023-02-26T04:49:51;15.10;73.80
68387;DHT22;55338;43.062;25.624;2023-02-26T04:52:17;15.10;73.90
68387;DHT22;55338;43.062;25.624;2023-02-26T04:54:43;15.10;74.70
68387;DHT22;55338;43.062;25.624;2023-02-26T04:57:08;15.10;75.00
68387;DHT22;55338;43.062;25.624;2023-02-26T04:59:34;15.10;75.40
68387;DHT22;55338;43.062;25.624;2023-02-26T05:02:00;15.10;75.80
68387;DHT22;55338;43.062;25.624;2023-02-26T05:04:25;15.10;76.40
68387;DHT22;55338;43.062;25.624;2023-02-26T05:06:51;15.10;76.90
68387;DHT22;55338;43.062;25.624;2023-02-26T05:09:17;15.00;77.20
68387;DHT22;55338;43.062;25.624;2023-02-26T05:11:43;15.00;78.00
68387;DHT22;55338;43.062;25.624;2023-02-26T05:14:08;15.00;77.90
68387;DHT22;55338;43.062;25.624;2023-02-26T05:16:34;15.00;78.30
68387;DHT22;55338;43.062;25.624;2023-02-26T05:19:00;15.00;78.30
68387;DHT22;55338;43.062;25.624;2023-02-26T05:21:25;15.00;78.10
68387;DHT22;55338;43.062;25.624;2023-02-26T05:23:51;15.00;78.20
68387;DHT22;55338;43.062;25.624;2023-02-26T05:26:17;15.00;78.50
68387;DHT22;55338;43.062;25.624;2023-02-26T05:28:43;15.00;78.70
68387;DHT22;55338;43.062;25.624;2023-02-26T05:31:11;15.00;78.60
68387;DHT22;55338;43.062;25.624;2023-02-26T05:33:37;15.00;79.00
68387;DHT22;55338;43.062;25.624;2023-02-26T05:36:03;15.00;78.80
68387;DHT22;55338;43.062;25.624;2023-02-26T05:38:31;15.00;78.80
68387;DHT22;55338;43.062;25.624;2023-02-26T05:40:58;15.10;78.70
68387;DHT22;55338;43.062;25.624;2023-02-26T05:43:24;15.10;78.50
68387;DHT22;55338;43.062;25.624;2023-02-26T05:45:51;15.10;78.20
68387;DHT22;55338;43.062;25.624;2023-02-26T05:48:17;15.20;78.00
68387;DHT22;55338;43.062;25.624;2023-02-26T05:50:43;15.30;77.90
68387;DHT22;55338;43.062;25.624;2023-02-26T05:53:09;15.30;77.90
68387;DHT22;55338;43.062;25.624;2023-02-26T05:55:35;15.30;77.80
68387;DHT22;55338;43.062;25.624;2023-02-26T05:58:01;15.30;77.70
68387;DHT22;55338;43.062;25.624;2023-02-26T06:00:26;15.30;78.00
68387;DHT22;55338;43.062;25.624;2023-02-26T06:02:52;15.30;78.40
68387;DHT22;55338;43.062;25.624;2023-02-26T06:05:18;15.30;78.80
68387;DHT22;55338;43.062;25.624;2023-02-26T06:07:44;15.30;79.10
68387;DHT22;55338;43.062;25.624;2023-02-26T06:10:10;15.30;79.40
68387;DHT22;55338;43.062;25.624;2023-02-26T06:12:36;15.30;79.70
68387;DHT22;55338;43.062;25.624;2023-02-26T06:15:03;15.30;80.00
68387;DHT22;55338;43.062;25.624;2023-02-26T06:17:29;15.30;80.40
68387;DHT22;55338;43.062;25.624;2023-02-26T06:19:55;15.30;81.00
68387;DHT22;55338;43.062;25.624;2023-02-26T06:22:20;15.30;81.50
68387;DHT22;55338;43.062;25.624;2023-02-26T06:24:46;15.30;82.20
68387;DHT22;55338;43.062;25.624;2023-02-26T06:27:12;15.30;82.50
68387;DHT22;55338;43.062;25.624;2023-02-26T06:29:38;15.30;83.20
68387;DHT22;55338;43.062;25.624;2023-02-26T06:32:04;15.30;83.40
68387;DHT22;55338;43.062;25.624;2023-02-26T06:34:30;15.40;83.50
68387;DHT22;55338;43.062;25.624;2023-02-26T06:36:56;15.40;83.60
68387;DHT22;55338;43.062;25.624;2023-02-26T06:39:22;15.40;83.70
68387;DHT22;55338;43.062;25.624;2023-02-26T06:41:48;15.50;83.90
68387;DHT22;55338;43.062;25.624;2023-02-26T06:44:14;15.40;83.90
68387;DHT22;55338;43.062;25.624;2023-02-26T06:46:39;15.50;84.10
68387;DHT22;55338;43.062;25.624;2023-02-26T06:49:05;15.50;84.20
68387;DHT22;55338;43.062;25.624;2023-02-26T06:51:31;15.50;84.30
68387;DHT22;55338;43.062;25.624;2023-02-26T06:53:57;15.50;84.10
68387;DHT22;55338;43.062;25.624;2023-02-26T06:56:23;15.60;84.10
68387;DHT22;55338;43.062;25.624;2023-02-26T06:58:49;15.60;83.80
68387;DHT22;55338;43.062;25.624;2023-02-26T07:01:15;15.60;83.40
68387;DHT22;55338;43.062;25.624;2023-02-26T07:03:41;15.70;83.20
68387;DHT22;55338;43.062;25.624;2023-02-26T07:06:08;15.80;83.10
68387;DHT22;55338;43.062;25.624;2023-02-26T07:08:35;15.90;82.50
68387;DHT22;55338;43.062;25.624;2023-02-26T07:11:01;15.90;82.20
68387;DHT22;55338;43.062;25.624;2023-02-26T07:13:31;16.00;82.00
68387;DHT22;55338;43.062;25.624;2023-02-26T07:15:57;16.10;81.00
68387;DHT22;55338;43.062;25.624;2023-02-26T07:18:22;16.10;80.20
68387;DHT22;55338;43.062;25.624;2023-02-26T07:20:49;16.20;79.50
68387;DHT22;55338;43.062;25.624;2023-02-26T07:23:15;16.30;79.50
68387;DHT22;55338;43.062;25.624;2023-02-26T07:25:41;16.40;79.60
68387;DHT22;55338;43.062;25.624;2023-02-26T07:28:07;16.50;79.30
68387;DHT22;55338;43.062;25.624;2023-02-26T07:30:32;16.50;79.40
68387;DHT22;55338;43.062;25.624;2023-02-26T07:32:58;16.50;79.40
68387;DHT22;55338;43.062;25.624;2023-02-26T07:35:25;16.60;79.40
68387;DHT22;55338;43.062;25.624;2023-02-26T07:37:51;16.60;78.90
68387;DHT22;55338;43.062;25.624;2023-02-26T07:40:17;16.60;79.00
68387;DHT22;55338;43.062;25.624;2023-02-26T07:42:43;16.60;78.70
68387;DHT22;55338;43.062;25.624;2023-02-26T07:45:09;16.70;78.00
68387;DHT22;55338;43.062;25.624;2023-02-26T07:47:35;16.80;77.40
68387;DHT22;55338;43.062;25.624;2023-02-26T07:50:01;16.80;77.40
68387;DHT22;55338;43.062;25.624;2023-02-26T07:52:27;16.90;76.50
68387;DHT22;55338;43.062;25.624;2023-02-26T07:54:53;16.90;75.80
68387;DHT22;55338;43.062;25.624;2023-02-26T07:57:21;16.90;75.50
68387;DHT22;55338;43.062;25.624;2023-02-26T07:59:47;17.10;74.50
68387;DHT22;55338;43.062;25.624;2023-02-26T08:02:12;17.10;73.10
68387;DHT22;55338;43.062;25.624;2023-02-26T08:04:38;17.10;73.10
68387;DHT22;55338;43.062;25.624;2023-02-26T08:07:04;17.30;72.70
68387;DHT22;55338;43.062;25.624;2023-02-26T08:09:30;17.30;71.50
68387;DHT22;55338;43.062;25.624;2023-02-26T08:11:56;17.30;71.40
68387;DHT22;55338;43.062;25.624;2023-02-26T08:14:22;17.40;71.10
68387;DHT22;55338;43.062;25.624;2023-02-26T08:16:48;17.50;70.40
68387;DHT22;55338;43.062;25.624;2023-02-26T08:19:14;17.60;70.70
68387;DHT22;55338;43.062;25.624;2023-02-26T08:21:40;17.70;70.20
68387;DHT22;55338;43.062;25.624;2023-02-26T08:24:06;17.80;69.80
68387;DHT22;55338;43.062;25.624;2023-02-26T08:26:34;17.90;69.60
68387;DHT22;55338;43.062;25.624;2023-02-26T08:29:01;17.90;68.70
68387;DHT22;55338;43.062;25.624;2023-02-26T08:31:26;18.00;67.90
68387;DHT22;55338;43.062;25.624;2023-02-26T08:33:53;18.00;67.40
68387;DHT22;55338;43.062;25.624;2023-02-26T08:36:19;17.90;67.60
68387;DHT22;55338;43.062;25.624;2023-02-26T08:38:46;18.00;67.00
68387;DHT22;55338;43.062;25.624;2023-02-26T08:41:12;18.20;66.50
68387;DHT22;55338;43.062;25.624;2023-02-26T08:43:38;18.20;65.80
68387;DHT22;55338;43.062;25.624;2023-02-26T08:46:04;18.20;65.50
68387;DHT22;55338;43.062;25.624;2023-02-26T08:48:30;18.30;65.80
68387;DHT22;55338;43.062;25.624;2023-02-26T08:50:56;18.30;65.30
68387;DHT22;55338;43.062;25.624;2023-02-26T08:53:22;18.30;65.40
68387;DHT22;55338;43.062;25.624;2023-02-26T08:55:52;18.40;65.10
68387;DHT22;55338;43.062;25.624;2023-02-26T08:58:18;18.30;65.40
68387;DHT22;55338;43.062;25.624;2023-02-26T09:00:44;18.40;64.60
68387;DHT22;55338;43.062;25.624;2023-02-26T09:03:11;18.60;63.80
68387;DHT22;55338;43.062;25.624;2023-02-26T09:05:37;18.70;63.30
68387;DHT22;55338;43.062;25.624;2023-02-26T09:08:03;18.80;62.80
68387;DHT22;55338;43.062;25.624;2023-02-26T09:10:29;18.80;62.50
68387;DHT22;55338;43.062;25.624;2023-02-26T09:12:55;19.00;62.20
68387;DHT22;55338;43.062;25.624;2023-02-26T09:15:20;19.20;61.20
68387;DHT22;55338;43.062;25.624;2023-02-26T09:17:46;19.20;61.10
68387;DHT22;55338;43.062;25.624;2023-02-26T09:20:13;19.30;61.10
68387;DHT22;55338;43.062;25.624;2023-02-26T09:22:40;19.40;60.20
68387;DHT22;55338;43.062;25.624;2023-02-26T09:25:06;19.50;60.10
68387;DHT22;55338;43.062;25.624;2023-02-26T09:27:32;19.70;59.20
68387;DHT22;55338;43.062;25.624;2023-02-26T09:29:59;19.90;58.70
68387;DHT22;55338;43.062;25.624;2023-02-26T09:32:25;19.80;58.10
68387;DHT22;55338;43.062;25.624;2023-02-26T09:34:51;19.80;58.60
68387;DHT22;55338;43.062;25.624;2023-02-26T09:37:17;19.90;58.10
68387;DHT22;55338;43.062;25.624;2023-02-26T09:39:43;19.70;57.50
68387;DHT22;55338;43.062;25.624;2023-02-26T09:45:40;19.80;57.70
68387;DHT22;55338;43.062;25.624;2023-02-26T09:48:27;19.80;57.30
68387;DHT22;55338;43.062;25.624;2023-02-26T09:51:18;19.90;57.30
68387;DHT22;55338;43.062;25.624;2023-02-26T09:53:47;19.80;57.00
68387;DHT22;55338;43.062;25.624;2023-02-26T09:56:16;19.80;57.00
68387;DHT22;55338;43.062;25.624;2023-02-26T09:58:44;19.90;57.30
68387;DHT22;55338;43.062;25.624;2023-02-26T10:07:03;19.90;56.90
68387;DHT22;55338;43.062;25.624;2023-02-26T10:12:36;20.30;55.90
68387;DHT22;55338;43.062;25.624;2023-02-26T10:20:24;20.20;55.80
68387;DHT22;55338;43.062;25.624;2023-02-26T10:25:38;19.80;56.80
68387;DHT22;55338;43.062;25.624;2023-02-26T10:28:34;20.00;56.00
68387;DHT22;55338;43.062;25.624;2023-02-26T10:34:00;20.00;55.50
68387;DHT22;55338;43.062;25.624;2023-02-26T10:36:51;19.80;56.00
68387;DHT22;55338;43.062;25.624;2023-02-26T10:39:34;19.80;56.20
68387;DHT22;55338;43.062;25.624;2023-02-26T10:42:11;19.90;56.70
68387;DHT22;55338;43.062;25.624;2023-02-26T10:44:55;19.70;56.60
68387;DHT22;55338;43.062;25.624;2023-02-26T10:50:20;19.50;57.20
68387;DHT22;55338;43.062;25.624;2023-02-26T10:52:48;19.50;57.40
68387;DHT22;55338;43.062;25.624;2023-02-26T10:55:22;19.50;57.40
68387;DHT22;55338;43.062;25.624;2023-02-26T10:58:04;19.50;57.30
68387;DHT22;55338;43.062;25.624;2023-02-26T11:00:32;19.50;57.40
68387;DHT22;55338;43.062;25.624;2023-02-26T11:03:00;19.40;57.30
68387;DHT22;55338;43.062;25.624;2023-02-26T11:05:29;19.40;57.80
68387;DHT22;55338;43.062;25.624;2023-02-26T11:08:00;19.40;57.90
68387;DHT22;55338;43.062;25.624;2023-02-26T11:10:49;19.30;58.50
68387;DHT22;55338;43.062;25.624;2023-02-26T11:13:15;19.20;58.40
68387;DHT22;55338;43.062;25.624;2023-02-26T11:15:45;19.40;58.50
68387;DHT22;55338;43.062;25.624;2023-02-26T11:18:17;19.40;57.80
68387;DHT22;55338;43.062;25.624;2023-02-26T11:20:46;19.40;58.00
68387;DHT22;55338;43.062;25.624;2023-02-26T11:23:15;19.40;57.60
68387;DHT22;55338;43.062;25.624;2023-02-26T11:25:43;19.70;57.30
68387;DHT22;55338;43.062;25.624;2023-02-26T11:28:23;19.80;56.90
68387;DHT22;55338;43.062;25.624;2023-02-26T11:30:51;20.00;56.30
68387;DHT22;55338;43.062;25.624;2023-02-26T11:33:26;20.20;55.90
68387;DHT22;55338;43.062;25.624;2023-02-26T11:36:02;20.20;56.00
68387;DHT22;55338;43.062;25.624;2023-02-26T11:38:31;20.10;55.60
68387;DHT22;55338;43.062;25.624;2023-02-26T11:41:00;20.10;55.50
68387;DHT22;55338;43.062;25.624;2023-02-26T11:43:41;20.20;55.40
68387;DHT22;55338;43.062;25.624;2023-02-26T11:46:11;20.10;55.20
68387;DHT22;55338;43.062;25.624;2023-02-26T11:48:46;19.90;56.10
68387;DHT22;55338;43.062;25.624;2023-02-26T11:51:14;19.80;55.90
68387;DHT22;55338;43.062;25.624;2023-02-26T11:53:52;19.60;56.20
68387;DHT22;55338;43.062;25.624;2023-02-26T11:56:38;19.60;55.80
68387;DHT22;55338;43.062;25.624;2023-02-26T11:59:26;19.60;55.90
68387;DHT22;55338;43.062;25.624;2023-02-26T12:02:10;19.50;55.90
68387;DHT22;55338;43.062;25.624;2023-02-26T12:04:39;19.60;56.20
68387;DHT22;55338;43.062;25.624;2023-02-26T12:07:10;19.40;56.10
68387;DHT22;55338;43.062;25.624;2023-02-26T12:09:37;19.60;55.60
68387;DHT22;55338;43.062;25.624;2023-02-26T12:20:36;19.50;56.10
68387;DHT22;55338;43.062;25.624;2023-02-26T12:23:17;19.60;55.70
68387;DHT22;55338;43.062;25.624;2023-02-26T12:26:07;19.50;56.20
68387;DHT22;55338;43.062;25.624;2023-02-26T12:28:49;19.60;55.90
68387;DHT22;55338;43.062;25.624;2023-02-26T12:34:22;19.40;56.10
68387;DHT22;55338;43.062;25.624;2023-02-26T12:51:36;19.10;56.70
68387;DHT22;55338;43.062;25.624;2023-02-26T12:56:52;18.80;57.60
68387;DHT22;55338;43.062;25.624;2023-02-26T13:05:22;18.80;58.40
68387;DHT22;55338;43.062;25.624;2023-02-26T13:11:06;18.80;58.30
68387;DHT22;55338;43.062;25.624;2023-02-26T13:16:12;19.00;57.70
68387;DHT22;55338;43.062;25.624;2023-02-26T13:21:23;19.30;57.20
68387;DHT22;55338;43.062;25.624;2023-02-26T13:23:56;19.40;57.30
68387;DHT22;55338;43.062;25.624;2023-02-26T13:26:25;19.50;57.20
68387;DHT22;55338;43.062;25.624;2023-02-26T13:28:58;19.50;56.90
68387;DHT22;55338;43.062;25.624;2023-02-26T13:33:57;19.40;56.40
68387;DHT22;55338;43.062;25.624;2023-02-26T13:36:26;18.90;56.80
68387;DHT22;55338;43.062;25.624;2023-02-26T13:39:22;19.10;57.00
68387;DHT22;55338;43.062;25.624;2023-02-26T13:44:58;19.00;57.00
68387;DHT22;55338;43.062;25.624;2023-02-26T13:50:21;19.00;57.10
68387;DHT22;55338;43.062;25.624;2023-02-26T13:55:45;18.60;58.10
68387;DHT22;55338;43.062;25.624;2023-02-26T14:01:03;18.60;58.40
68387;DHT22;55338;43.062;25.624;2023-02-26T14:03:32;18.50;58.80
68387;DHT22;55338;43.062;25.624;2023-02-26T14:08:57;18.50;59.00
68387;DHT22;55338;43.062;25.624;2023-02-26T14:14:15;18.40;59.00
68387;DHT22;55338;43.062;25.624;2023-02-26T14:16:44;18.40;59.10
68387;DHT22;55338;43.062;25.624;2023-02-26T14:19:30;18.30;59.40
68387;DHT22;55338;43.062;25.624;2023-02-26T14:24:30;18.30;59.00
68387;DHT22;55338;43.062;25.624;2023-02-26T14:29:42;18.20;58.90
68387;DHT22;55338;43.062;25.624;2023-02-26T14:32:21;18.20;58.80
68387;DHT22;55338;43.062;25.624;2023-02-26T14:34:52;18.20;58.70
68387;DHT22;55338;43.062;25.624;2023-02-26T14:37:23;18.20;58.60
68387;DHT22;55338;43.062;25.624;2023-02-26T14:42:44;18.30;58.70
68387;DHT22;55338;43.062;25.624;2023-02-26T14:47:46;18.20;58.70
68387;DHT22;55338;43.062;25.624;2023-02-26T14:50:19;18.20;58.50
68387;DHT22;55338;43.062;25.624;2023-02-26T15:08:43;18.10;59.10
68387;DHT22;55338;43.062;25.624;2023-02-26T15:19:32;17.80;60.00
68387;DHT22;55338;43.062;25.624;2023-02-26T15:24:37;17.70;60.20
68387;DHT22;55338;43.062;25.624;2023-02-26T15:27:07;17.70;60.40
68387;DHT22;55338;43.062;25.624;2023-02-26T15:29:37;17.60;60.50
68387;DHT22;55338;43.062;25.624;2023-02-26T15:34:45;17.50;61.00
68387;DHT22;55338;43.062;25.624;2023-02-26T15:37:23;17.40;61.10
68387;DHT22;55338;43.062;25.624;2023-02-26T15:39:51;17.40;61.50
68387;DHT22;55338;43.062;25.624;2023-02-26T15:42:19;17.40;61.40
68387;DHT22;55338;43.062;25.624;2023-02-26T15:44:46;17.30;61.60
68387;DHT22;55338;43.062;25.624;2023-02-26T15:47:15;17.30;61.80
68387;DHT22;55338;43.062;25.624;2023-02-26T15:49:45;17.30;62.10
68387;DHT22;55338;43.062;25.624;2023-02-26T15:52:18;17.20;62.20
68387;DHT22;55338;43.062;25.624;2023-02-26T15:54:48;17.20;62.40
68387;DHT22;55338;43.062;25.624;2023-02-26T15:57:18;17.10;62.50
68387;DHT22;55338;43.062;25.624;2023-02-26T15:59:47;17.10;62.50
68387;DHT22;55338;43.062;25.624;2023-02-26T16:02:15;17.10;63.00
68387;DHT22;55338;43.062;25.624;2023-02-26T16:04:43;17.00;63.00
68387;DHT22;55338;43.062;25.624;2023-02-26T16:07:10;17.00;63.20
68387;DHT22;55338;43.062;25.624;2023-02-26T16:09:39;17.00;63.50
68387;DHT22;55338;43.062;25.624;2023-02-26T16:12:13;17.00;63.70
68387;DHT22;55338;43.062;25.624;2023-02-26T16:14:46;17.00;63.80
68387;DHT22;55338;43.062;25.624;2023-02-26T16:17:33;16.90;64.10
68387;DHT22;55338;43.062;25.624;2023-02-26T16:20:04;16.90;64.70
68387;DHT22;55338;43.062;25.624;2023-02-26T16:22:41;16.80;64.90
68387;DHT22;55338;43.062;25.624;2023-02-26T16:25:14;16.80;65.10
68387;DHT22;55338;43.062;25.624;2023-02-26T16:27:42;16.80;65.40
68387;DHT22;55338;43.062;25.624;2023-02-26T16:30:16;16.80;65.60
68387;DHT22;55338;43.062;25.624;2023-02-26T16:32:43;16.80;65.80
68387;DHT22;55338;43.062;25.624;2023-02-26T16:35:20;16.80;66.00
68387;DHT22;55338;43.062;25.624;2023-02-26T16:37:49;16.70;66.20
68387;DHT22;55338;43.062;25.624;2023-02-26T16:40:53;16.80;66.40
68387;DHT22;55338;43.062;25.624;2023-02-26T16:43:30;16.80;66.60
68387;DHT22;55338;43.062;25.624;2023-02-26T16:46:04;16.70;67.00
68387;DHT22;55338;43.062;25.624;2023-02-26T16:48:40;16.70;67.00
68387;DHT22;55338;43.062;25.624;2023-02-26T16:51:12;16.70;67.10
68387;DHT22;55338;43.062;25.624;2023-02-26T16:53:55;16.60;67.00
68387;DHT22;55338;43.062;25.624;2023-02-26T16:56:34;16.60;67.20
68387;DHT22;55338;43.062;25.624;2023-02-26T16:59:24;16.70;67.20
68387;DHT22;55338;43.062;25.624;2023-02-26T17:02:00;16.60;67.20
68387;DHT22;55338;43.062;25.624;2023-02-26T17:04:33;16.60;67.40
68387;DHT22;55338;43.062;25.624;2023-02-26T17:07:01;16.60;67.70
68387;DHT22;55338;43.062;25.624;2023-02-26T17:12:05;16.60;67.50
68387;DHT22;55338;43.062;25.624;2023-02-26T17:14:38;16.60;67.70
68387;DHT22;55338;43.062;25.624;2023-02-26T17:17:05;16.60;67.70
68387;DHT22;55338;43.062;25.624;2023-02-26T17:19:31;16.50;67.70
68387;DHT22;55338;43.062;25.624;2023-02-26T17:21:57;16.50;67.90
68387;DHT22;55338;43.062;25.624;2023-02-26T17:24:34;16.50;68.00
68387;DHT22;55338;43.062;25.624;2023-02-26T17:27:02;16.40;68.40
68387;DHT22;55338;43.062;25.624;2023-02-26T17:29:37;16.40;68.50
68387;DHT22;55338;43.062;25.624;2023-02-26T17:32:04;16.30;68.90
68387;DHT22;55338;43.062;25.624;2023-02-26T17:34:30;16.30;69.00
68387;DHT22;55338;43.062;25.624;2023-02-26T17:36:56;16.30;69.00
68387;DHT22;55338;43.062;25.624;2023-02-26T17:39:24;16.30;68.80
68387;DHT22;55338;43.062;25.624;2023-02-26T17:41:50;16.40;68.80
68387;DHT22;55338;43.062;25.624;2023-02-26T17:44:16;16.40;68.70
68387;DHT22;55338;43.062;25.624;2023-02-26T17:46:42;16.30;68.80
68387;DHT22;55338;43.062;25.624;2023-02-26T17:49:09;16.40;68.70
68387;DHT22;55338;43.062;25.624;2023-02-26T17:51:36;16.30;69.00
68387;DHT22;55338;43.062;25.624;2023-02-26T17:54:01;16.30;68.90
68387;DHT22;55338;43.062;25.624;2023-02-26T17:56:30;16.30;68.90
68387;DHT22;55338;43.062;25.624;2023-02-26T17:58:58;16.30;68.80
68387;DHT22;55338;43.062;25.624;2023-02-26T18:01:25;16.30;68.80
68387;DHT22;55338;43.062;25.624;2023-02-26T18:03:54;16.30;68.90
68387;DHT22;55338;43.062;25.624;2023-02-26T18:06:21;16.30;69.00
68387;DHT22;55338;43.062;25.624;2023-02-26T18:08:47;16.30;69.00
68387;DHT22;55338;43.062;25.624;2023-02-26T18:11:15;16.30;69.20
68387;DHT22;55338;43.062;25.624;2023-02-26T18:13:41;16.30;68.90
68387;DHT22;55338;43.062;25.624;2023-02-26T18:16:18;16.30;69.10
68387;DHT22;55338;43.062;25.624;2023-02-26T18:18:44;16.20;69.20
68387;DHT22;55338;43.062;25.624;2023-02-26T18:21:10;16.30;69.20
68387;DHT22;55338;43.062;25.624;2023-02-26T18:23:36;16.20;69.70
68387;DHT22;55338;43.062;25.624;2023-02-26T18:26:02;16.20;69.80
68387;DHT22;55338;43.062;25.624;2023-02-26T18:28:28;16.30;69.80
68387;DHT22;55338;43.062;25.624;2023-02-26T18:30:55;16.30;69.60
68387;DHT22;55338;43.062;25.624;2023-02-26T18:33:22;16.30;69.70
68387;DHT22;55338;43.062;25.624;2023-02-26T18:35:51;16.30;69.80
68387;DHT22;55338;43.062;25.624;2023-02-26T18:38:23;16.30;69.70
68387;DHT22;55338;43.062;25.624;2023-02-26T18:40:49;16.20;69.70